sensor_id;sensor_type;location;lat;lon;timestamp;P1;durP1;ratioP1;P2;durP2;ratioP2
6306;SDS011;3186;54.062;9.962;2023-07-31T00:00:35;4.97;;;1.87;;
6306;SDS011;3186;54.062;9.962;2023-07-31T00:03:01;3.53;;;1.67;;
6306;SDS011;3186;54.062;9.962;2023-07-31T00:05:27;6.27;;;1.97;;
6306;SDS011;3186;54.062;9.962;2023-07-31T00:07:52;5.47;;;1.57;;
6306;SDS011;3186;54.062;9.962;2023-07-31T00:10:19;4.97;;;2.00;;
6306;SDS011;3186;54.062;9.962;2023-07-31T00:12:46;4.00;;;1.73;;
6306;SDS011;3186;54.062;9.962;2023-07-31T00:15:13;3.17;;;1.57;;
6306;SDS011;3186;54.062;9.962;2023-07-31T00:17:40;7.70;;;2.27;;
6306;SDS011;3186;54.062;9.962;2023-07-31T00:20:06;4.40;;;1.97;;
6306;SDS011;3186;54.062;9.962;2023-07-31T00:22:32;4.07;;;1.80;;
6306;SDS011;3186;54.062;9.962;2023-07-31T00:24:57;5.30;;;2.17;;
6306;SDS011;3186;54.062;9.962;2023-07-31T00:27:24;5.37;;;1.93;;
6306;SDS011;3186;54.062;9.962;2023-07-31T00:29:50;3.73;;;1.60;;
6306;SDS011;3186;54.062;9.962;2023-07-31T00:32:16;3.37;;;1.93;;
6306;SDS011;3186;54.062;9.962;2023-07-31T00:34:42;7.30;;;1.83;;
6306;SDS011;3186;54.062;9.962;2023-07-31T00:37:08;4.00;;;1.60;;
6306;SDS011;3186;54.062;9.962;2023-07-31T00:39:34;4.40;;;1.97;;
6306;SDS011;3186;54.062;9.962;2023-07-31T00:42:00;1.90;;;1.27;;
6306;SDS011;3186;54.062;9.962;2023-07-31T00:44:26;3.20;;;1.57;;
6306;SDS011;3186;54.062;9.962;2023-07-31T00:46:52;2.83;;;1.50;;
6306;SDS011;3186;54.062;9.962;2023-07-31T00:49:20;3.30;;;1.40;;
6306;SDS011;3186;54.062;9.962;2023-07-31T00:51:49;2.67;;;1.50;;
6306;SDS011;3186;54.062;9.962;2023-07-31T00:54:17;4.37;;;1.50;;
6306;SDS011;3186;54.062;9.962;2023-07-31T00:56:45;3.80;;;1.80;;
6306;SDS011;3186;54.062;9.962;2023-07-31T00:59:13;3.40;;;1.73;;
6306;SDS011;3186;54.062;9.962;2023-07-31T01:01:39;3.03;;;1.30;;
6306;SDS011;3186;54.062;9.962;2023-07-31T01:04:06;3.23;;;1.63;;
6306;SDS011;3186;54.062;9.962;2023-07-31T01:12:14;6.97;;;1.70;;
6306;SDS011;3186;54.062;9.962;2023-07-31T01:14:51;1.83;;;1.40;;
6306;SDS011;3186;54.062;9.962;2023-07-31T01:17:28;1.70;;;1.30;;
6306;SDS011;3186;54.062;9.962;2023-07-31T01:19:54;2.33;;;1.40;;
6306;SDS011;3186;54.062;9.962;2023-07-31T01:22:30;3.40;;;1.70;;
6306;SDS011;3186;54.062;9.962;2023-07-31T01:28:10;2.33;;;1.50;;
6306;SDS011;3186;54.062;9.962;2023-07-31T01:30:43;5.27;;;1.40;;
6306;SDS011;3186;54.062;9.962;2023-07-31T01:33:13;3.00;;;1.23;;
6306;SDS011;3186;54.062;9.962;2023-07-31T01:35:44;2.07;;;1.23;;
6306;SDS011;3186;54.062;9.962;2023-07-31T01:38:11;4.57;;;1.50;;
6306;SDS011;3186;54.062;9.962;2023-07-31T01:40:37;3.07;;;1.47;;
6306;SDS011;3186;54.062;9.962;2023-07-31T01:43:08;5.40;;;1.87;;
6306;SDS011;3186;54.062;9.962;2023-07-31T01:45:33;3.93;;;1.50;;
6306;SDS011;3186;54.062;9.962;2023-07-31T01:47:59;2.60;;;1.40;;
6306;SDS011;3186;54.062;9.962;2023-07-31T01:50:25;1.47;;;1.30;;
6306;SDS011;3186;54.062;9.962;2023-07-31T01:52:51;4.73;;;1.47;;
6306;SDS011;3186;54.062;9.962;2023-07-31T01:55:17;6.23;;;1.57;;
6306;SDS011;3186;54.062;9.962;2023-07-31T01:57:42;1.93;;;1.37;;
6306;SDS011;3186;54.062;9.962;2023-07-31T02:00:08;4.30;;;1.50;;
6306;SDS011;3186;54.062;9.962;2023-07-31T02:02:37;2.77;;;1.40;;
6306;SDS011;3186;54.062;9.962;2023-07-31T02:05:03;3.73;;;1.50;;
6306;SDS011;3186;54.062;9.962;2023-07-31T02:07:29;1.83;;;1.50;;
6306;SDS011;3186;54.062;9.962;2023-07-31T02:09:55;3.37;;;1.60;;
6306;SDS011;3186;54.062;9.962;2023-07-31T02:12:21;3.00;;;1.57;;
6306;SDS011;3186;54.062;9.962;2023-07-31T02:14:47;5.17;;;1.57;;
6306;SDS011;3186;54.062;9.962;2023-07-31T02:17:12;1.80;;;1.40;;
6306;SDS011;3186;54.062;9.962;2023-07-31T02:19:38;1.93;;;1.37;;
6306;SDS011;3186;54.062;9.962;2023-07-31T02:22:04;2.67;;;1.30;;
6306;SDS011;3186;54.062;9.962;2023-07-31T02:24:30;2.80;;;1.60;;
6306;SDS011;3186;54.062;9.962;2023-07-31T02:26:57;1.30;;;1.20;;
6306;SDS011;3186;54.062;9.962;2023-07-31T02:29:23;2.10;;;1.50;;
6306;SDS011;3186;54.062;9.962;2023-07-31T02:31:48;4.37;;;2.10;;
6306;SDS011;3186;54.062;9.962;2023-07-31T02:34:15;4.83;;;1.83;;
6306;SDS011;3186;54.062;9.962;2023-07-31T02:36:40;5.07;;;1.90;;
6306;SDS011;3186;54.062;9.962;2023-07-31T02:39:07;4.73;;;2.17;;
6306;SDS011;3186;54.062;9.962;2023-07-31T02:41:32;2.63;;;1.83;;
6306;SDS011;3186;54.062;9.962;2023-07-31T02:43:58;3.17;;;1.70;;
6306;SDS011;3186;54.062;9.962;2023-07-31T02:46:24;3.20;;;1.63;;
6306;SDS011;3186;54.062;9.962;2023-07-31T02:48:50;5.73;;;2.40;;
6306;SDS011;3186;54.062;9.962;2023-07-31T02:51:16;3.10;;;2.00;;
6306;SDS011;3186;54.062;9.962;2023-07-31T02:53:42;4.60;;;2.00;;
6306;SDS011;3186;54.062;9.962;2023-07-31T02:56:08;3.97;;;2.10;;
6306;SDS011;3186;54.062;9.962;2023-07-31T02:58:34;3.20;;;1.60;;
6306;SDS011;3186;54.062;9.962;2023-07-31T03:00:59;7.37;;;2.73;;
6306;SDS011;3186;54.062;9.962;2023-07-31T03:03:25;6.30;;;3.50;;
6306;SDS011;3186;54.062;9.962;2023-07-31T03:05:51;2.87;;;2.10;;
6306;SDS011;3186;54.062;9.962;2023-07-31T03:08:18;9.33;;;2.20;;
6306;SDS011;3186;54.062;9.962;2023-07-31T03:10:43;6.87;;;2.70;;
6306;SDS011;3186;54.062;9.962;2023-07-31T03:13:09;10.27;;;3.40;;
6306;SDS011;3186;54.062;9.962;2023-07-31T03:15:35;6.87;;;2.80;;
6306;SDS011;3186;54.062;9.962;2023-07-31T03:18:01;8.10;;;2.83;;
6306;SDS011;3186;54.062;9.962;2023-07-31T03:20:27;3.37;;;2.40;;
6306;SDS011;3186;54.062;9.962;2023-07-31T03:22:53;4.73;;;2.70;;
6306;SDS011;3186;54.062;9.962;2023-07-31T03:25:18;5.87;;;2.77;;
6306;SDS011;3186;54.062;9.962;2023-07-31T03:27:44;7.07;;;3.13;;
6306;SDS011;3186;54.062;9.962;2023-07-31T03:30:10;5.07;;;2.93;;
6306;SDS011;3186;54.062;9.962;2023-07-31T03:32:36;8.70;;;2.47;;
6306;SDS011;3186;54.062;9.962;2023-07-31T03:35:02;9.17;;;2.83;;
6306;SDS011;3186;54.062;9.962;2023-07-31T03:37:28;5.00;;;2.80;;
6306;SDS011;3186;54.062;9.962;2023-07-31T03:39:54;4.50;;;2.90;;
6306;SDS011;3186;54.062;9.962;2023-07-31T03:42:20;6.07;;;2.90;;
6306;SDS011;3186;54.062;9.962;2023-07-31T03:44:46;7.93;;;3.27;;
6306;SDS011;3186;54.062;9.962;2023-07-31T03:47:12;7.27;;;3.53;;
6306;SDS011;3186;54.062;9.962;2023-07-31T03:49:41;10.20;;;3.60;;
6306;SDS011;3186;54.062;9.962;2023-07-31T03:52:06;5.20;;;3.33;;
6306;SDS011;3186;54.062;9.962;2023-07-31T03:54:32;10.13;;;3.40;;
6306;SDS011;3186;54.062;9.962;2023-07-31T03:56:58;5.40;;;3.63;;
6306;SDS011;3186;54.062;9.962;2023-07-31T03:59:24;6.90;;;3.80;;
6306;SDS011;3186;54.062;9.962;2023-07-31T04:01:50;8.00;;;3.13;;
6306;SDS011;3186;54.062;9.962;2023-07-31T04:04:15;5.67;;;2.73;;
6306;SDS011;3186;54.062;9.962;2023-07-31T04:06:41;6.37;;;3.13;;
6306;SDS011;3186;54.062;9.962;2023-07-31T04:09:07;6.43;;;2.93;;
6306;SDS011;3186;54.062;9.962;2023-07-31T04:11:33;4.47;;;3.60;;
6306;SDS011;3186;54.062;9.962;2023-07-31T04:13:58;10.13;;;4.23;;
6306;SDS011;3186;54.062;9.962;2023-07-31T04:16:24;9.60;;;4.27;;
6306;SDS011;3186;54.062;9.962;2023-07-31T04:18:50;4.97;;;3.20;;
6306;SDS011;3186;54.062;9.962;2023-07-31T04:21:16;4.73;;;3.07;;
6306;SDS011;3186;54.062;9.962;2023-07-31T04:23:42;6.07;;;3.77;;
6306;SDS011;3186;54.062;9.962;2023-07-31T04:26:08;5.47;;;2.97;;
6306;SDS011;3186;54.062;9.962;2023-07-31T04:28:34;7.10;;;3.07;;
6306;SDS011;3186;54.062;9.962;2023-07-31T04:31:00;4.20;;;3.50;;
6306;SDS011;3186;54.062;9.962;2023-07-31T04:33:25;5.93;;;3.30;;
6306;SDS011;3186;54.062;9.962;2023-07-31T04:35:51;5.00;;;3.17;;
6306;SDS011;3186;54.062;9.962;2023-07-31T04:38:18;6.37;;;3.10;;
6306;SDS011;3186;54.062;9.962;2023-07-31T04:40:44;10.50;;;3.80;;
6306;SDS011;3186;54.062;9.962;2023-07-31T04:43:11;7.10;;;4.00;;
6306;SDS011;3186;54.062;9.962;2023-07-31T04:45:36;8.83;;;3.70;;
6306;SDS011;3186;54.062;9.962;2023-07-31T04:48:02;5.80;;;2.97;;
6306;SDS011;3186;54.062;9.962;2023-07-31T04:50:28;7.47;;;2.90;;
6306;SDS011;3186;54.062;9.962;2023-07-31T04:52:55;3.87;;;2.90;;
6306;SDS011;3186;54.062;9.962;2023-07-31T04:55:21;9.80;;;3.87;;
6306;SDS011;3186;54.062;9.962;2023-07-31T04:57:47;6.07;;;3.30;;
6306;SDS011;3186;54.062;9.962;2023-07-31T05:00:13;7.27;;;3.27;;
6306;SDS011;3186;54.062;9.962;2023-07-31T05:02:39;3.90;;;3.00;;
6306;SDS011;3186;54.062;9.962;2023-07-31T05:05:05;5.77;;;3.10;;
6306;SDS011;3186;54.062;9.962;2023-07-31T05:07:31;5.20;;;3.00;;
6306;SDS011;3186;54.062;9.962;2023-07-31T05:09:56;6.03;;;3.20;;
6306;SDS011;3186;54.062;9.962;2023-07-31T05:12:22;6.63;;;3.73;;
6306;SDS011;3186;54.062;9.962;2023-07-31T05:14:48;4.47;;;2.83;;
6306;SDS011;3186;54.062;9.962;2023-07-31T05:17:14;9.47;;;3.83;;
6306;SDS011;3186;54.062;9.962;2023-07-31T05:19:39;5.40;;;3.30;;
6306;SDS011;3186;54.062;9.962;2023-07-31T05:22:05;4.03;;;2.87;;
6306;SDS011;3186;54.062;9.962;2023-07-31T05:24:31;4.47;;;3.57;;
6306;SDS011;3186;54.062;9.962;2023-07-31T05:26:57;7.00;;;3.50;;
6306;SDS011;3186;54.062;9.962;2023-07-31T05:29:23;3.63;;;2.93;;
6306;SDS011;3186;54.062;9.962;2023-07-31T05:31:48;5.33;;;3.10;;
6306;SDS011;3186;54.062;9.962;2023-07-31T05:34:14;4.53;;;3.07;;
6306;SDS011;3186;54.062;9.962;2023-07-31T05:36:40;4.27;;;3.60;;
6306;SDS011;3186;54.062;9.962;2023-07-31T05:39:06;3.83;;;2.80;;
6306;SDS011;3186;54.062;9.962;2023-07-31T05:41:33;5.43;;;3.23;;
6306;SDS011;3186;54.062;9.962;2023-07-31T05:44:03;3.53;;;3.10;;
6306;SDS011;3186;54.062;9.962;2023-07-31T05:46:29;4.27;;;2.80;;
6306;SDS011;3186;54.062;9.962;2023-07-31T05:48:56;5.23;;;3.07;;
6306;SDS011;3186;54.062;9.962;2023-07-31T05:51:22;7.37;;;3.70;;
6306;SDS011;3186;54.062;9.962;2023-07-31T05:53:48;5.83;;;3.30;;
6306;SDS011;3186;54.062;9.962;2023-07-31T05:56:13;3.90;;;3.23;;
6306;SDS011;3186;54.062;9.962;2023-07-31T05:58:39;3.83;;;3.20;;
6306;SDS011;3186;54.062;9.962;2023-07-31T06:01:05;2.60;;;2.20;;
6306;SDS011;3186;54.062;9.962;2023-07-31T06:03:31;4.93;;;2.80;;
6306;SDS011;3186;54.062;9.962;2023-07-31T06:05:56;5.03;;;2.70;;
6306;SDS011;3186;54.062;9.962;2023-07-31T06:08:22;3.33;;;2.77;;
6306;SDS011;3186;54.062;9.962;2023-07-31T06:10:48;3.30;;;2.20;;
6306;SDS011;3186;54.062;9.962;2023-07-31T06:13:14;4.47;;;2.70;;
6306;SDS011;3186;54.062;9.962;2023-07-31T06:15:40;4.57;;;2.80;;
6306;SDS011;3186;54.062;9.962;2023-07-31T06:18:05;2.33;;;2.07;;
6306;SDS011;3186;54.062;9.962;2023-07-31T06:20:33;2.33;;;2.10;;
6306;SDS011;3186;54.062;9.962;2023-07-31T06:22:59;3.13;;;2.40;;
6306;SDS011;3186;54.062;9.962;2023-07-31T06:25:25;2.57;;;2.10;;
6306;SDS011;3186;54.062;9.962;2023-07-31T06:27:51;4.17;;;2.40;;
6306;SDS011;3186;54.062;9.962;2023-07-31T06:30:17;2.60;;;2.20;;
6306;SDS011;3186;54.062;9.962;2023-07-31T06:32:42;3.70;;;2.10;;
6306;SDS011;3186;54.062;9.962;2023-07-31T06:35:08;2.37;;;2.07;;
6306;SDS011;3186;54.062;9.962;2023-07-31T06:37:34;1.90;;;1.80;;
6306;SDS011;3186;54.062;9.962;2023-07-31T06:40:00;2.10;;;1.80;;
6306;SDS011;3186;54.062;9.962;2023-07-31T06:42:25;2.43;;;1.73;;
6306;SDS011;3186;54.062;9.962;2023-07-31T06:44:52;1.97;;;1.77;;
6306;SDS011;3186;54.062;9.962;2023-07-31T06:47:17;2.20;;;1.57;;
6306;SDS011;3186;54.062;9.962;2023-07-31T06:49:43;2.77;;;1.60;;
6306;SDS011;3186;54.062;9.962;2023-07-31T06:52:09;1.80;;;1.60;;
6306;SDS011;3186;54.062;9.962;2023-07-31T06:54:36;2.33;;;1.50;;
6306;SDS011;3186;54.062;9.962;2023-07-31T06:57:02;1.47;;;1.37;;
6306;SDS011;3186;54.062;9.962;2023-07-31T06:59:28;2.10;;;1.90;;
6306;SDS011;3186;54.062;9.962;2023-07-31T07:01:54;2.10;;;1.50;;
6306;SDS011;3186;54.062;9.962;2023-07-31T07:04:20;2.07;;;1.30;;
6306;SDS011;3186;54.062;9.962;2023-07-31T07:06:46;3.43;;;1.83;;
6306;SDS011;3186;54.062;9.962;2023-07-31T07:09:12;2.67;;;1.40;;
6306;SDS011;3186;54.062;9.962;2023-07-31T07:11:38;2.20;;;2.00;;
6306;SDS011;3186;54.062;9.962;2023-07-31T07:14:04;3.83;;;1.30;;
6306;SDS011;3186;54.062;9.962;2023-07-31T07:16:30;1.40;;;1.30;;
6306;SDS011;3186;54.062;9.962;2023-07-31T07:18:55;1.40;;;1.30;;
6306;SDS011;3186;54.062;9.962;2023-07-31T07:21:21;2.50;;;1.60;;
6306;SDS011;3186;54.062;9.962;2023-07-31T07:23:48;2.40;;;1.30;;
6306;SDS011;3186;54.062;9.962;2023-07-31T07:26:13;1.30;;;1.20;;
6306;SDS011;3186;54.062;9.962;2023-07-31T07:28:39;2.17;;;1.43;;
6306;SDS011;3186;54.062;9.962;2023-07-31T07:31:05;1.47;;;1.37;;
6306;SDS011;3186;54.062;9.962;2023-07-31T07:33:30;3.23;;;1.40;;
6306;SDS011;3186;54.062;9.962;2023-07-31T07:35:59;1.30;;;1.20;;
6306;SDS011;3186;54.062;9.962;2023-07-31T07:38:26;1.57;;;1.40;;
6306;SDS011;3186;54.062;9.962;2023-07-31T07:40:52;2.13;;;1.60;;
6306;SDS011;3186;54.062;9.962;2023-07-31T07:43:18;3.50;;;1.53;;
6306;SDS011;3186;54.062;9.962;2023-07-31T07:45:44;1.50;;;1.40;;
6306;SDS011;3186;54.062;9.962;2023-07-31T07:48:10;1.47;;;1.37;;
6306;SDS011;3186;54.062;9.962;2023-07-31T07:50:37;2.63;;;1.63;;
6306;SDS011;3186;54.062;9.962;2023-07-31T07:53:03;1.40;;;1.27;;
6306;SDS011;3186;54.062;9.962;2023-07-31T07:55:29;1.43;;;1.33;;
6306;SDS011;3186;54.062;9.962;2023-07-31T07:57:55;2.03;;;1.60;;
6306;SDS011;3186;54.062;9.962;2023-07-31T08:00:21;3.00;;;1.50;;
6306;SDS011;3186;54.062;9.962;2023-07-31T08:02:47;1.47;;;1.33;;
6306;SDS011;3186;54.062;9.962;2023-07-31T08:05:12;1.73;;;1.50;;
6306;SDS011;3186;54.062;9.962;2023-07-31T08:07:38;1.50;;;1.40;;
6306;SDS011;3186;54.062;9.962;2023-07-31T08:10:04;1.30;;;1.30;;
6306;SDS011;3186;54.062;9.962;2023-07-31T08:12:30;2.10;;;1.60;;
6306;SDS011;3186;54.062;9.962;2023-07-31T08:14:56;1.23;;;1.13;;
6306;SDS011;3186;54.062;9.962;2023-07-31T08:17:22;1.80;;;1.70;;
6306;SDS011;3186;54.062;9.962;2023-07-31T08:19:48;1.90;;;1.70;;
6306;SDS011;3186;54.062;9.962;2023-07-31T08:22:14;1.90;;;1.80;;
6306;SDS011;3186;54.062;9.962;2023-07-31T08:24:39;2.07;;;1.90;;
6306;SDS011;3186;54.062;9.962;2023-07-31T08:27:05;2.00;;;1.80;;
6306;SDS011;3186;54.062;9.962;2023-07-31T08:29:31;2.00;;;1.90;;
6306;SDS011;3186;54.062;9.962;2023-07-31T08:31:57;1.60;;;1.50;;
6306;SDS011;3186;54.062;9.962;2023-07-31T08:34:23;1.90;;;1.80;;
6306;SDS011;3186;54.062;9.962;2023-07-31T08:36:49;2.77;;;1.90;;
6306;SDS011;3186;54.062;9.962;2023-07-31T08:39:14;3.10;;;2.70;;
6306;SDS011;3186;54.062;9.962;2023-07-31T08:41:40;2.27;;;2.07;;
6306;SDS011;3186;54.062;9.962;2023-07-31T08:44:10;3.70;;;2.10;;
6306;SDS011;3186;54.062;9.962;2023-07-31T08:46:36;1.93;;;1.83;;
6306;SDS011;3186;54.062;9.962;2023-07-31T08:49:06;2.17;;;1.97;;
6306;SDS011;3186;54.062;9.962;2023-07-31T08:51:36;2.10;;;2.00;;
6306;SDS011;3186;54.062;9.962;2023-07-31T08:54:02;2.80;;;2.57;;
6306;SDS011;3186;54.062;9.962;2023-07-31T08:56:31;2.10;;;1.90;;
6306;SDS011;3186;54.062;9.962;2023-07-31T08:58:58;2.57;;;2.10;;
6306;SDS011;3186;54.062;9.962;2023-07-31T09:01:27;3.17;;;2.87;;
6306;SDS011;3186;54.062;9.962;2023-07-31T09:03:55;4.47;;;3.10;;
6306;SDS011;3186;54.062;9.962;2023-07-31T09:06:22;3.67;;;2.73;;
6306;SDS011;3186;54.062;9.962;2023-07-31T09:08:49;2.37;;;2.17;;
6306;SDS011;3186;54.062;9.962;2023-07-31T09:11:15;2.57;;;2.20;;
6306;SDS011;3186;54.062;9.962;2023-07-31T09:13:42;2.13;;;1.93;;
6306;SDS011;3186;54.062;9.962;2023-07-31T09:16:08;3.27;;;2.33;;
6306;SDS011;3186;54.062;9.962;2023-07-31T09:21:30;3.80;;;2.30;;
6306;SDS011;3186;54.062;9.962;2023-07-31T09:23:57;2.83;;;2.10;;
6306;SDS011;3186;54.062;9.962;2023-07-31T09:26:29;2.67;;;2.13;;
6306;SDS011;3186;54.062;9.962;2023-07-31T09:28:59;2.60;;;2.40;;
6306;SDS011;3186;54.062;9.962;2023-07-31T09:31:32;2.17;;;2.03;;
6306;SDS011;3186;54.062;9.962;2023-07-31T09:34:08;3.27;;;2.67;;
6306;SDS011;3186;54.062;9.962;2023-07-31T09:36:43;3.00;;;2.70;;
6306;SDS011;3186;54.062;9.962;2023-07-31T09:39:13;3.73;;;2.80;;
6306;SDS011;3186;54.062;9.962;2023-07-31T09:41:45;2.77;;;2.57;;
6306;SDS011;3186;54.062;9.962;2023-07-31T09:44:39;2.73;;;2.17;;
6306;SDS011;3186;54.062;9.962;2023-07-31T09:47:06;3.60;;;2.97;;
6306;SDS011;3186;54.062;9.962;2023-07-31T09:49:31;2.90;;;2.70;;
6306;SDS011;3186;54.062;9.962;2023-07-31T09:51:57;2.63;;;2.40;;
6306;SDS011;3186;54.062;9.962;2023-07-31T09:54:23;3.83;;;2.37;;
6306;SDS011;3186;54.062;9.962;2023-07-31T09:56:49;3.00;;;2.70;;
6306;SDS011;3186;54.062;9.962;2023-07-31T09:59:15;3.43;;;2.57;;
6306;SDS011;3186;54.062;9.962;2023-07-31T10:01:43;4.73;;;3.20;;
6306;SDS011;3186;54.062;9.962;2023-07-31T10:04:11;2.77;;;2.57;;
6306;SDS011;3186;54.062;9.962;2023-07-31T10:06:38;2.63;;;2.43;;
6306;SDS011;3186;54.062;9.962;2023-07-31T10:09:08;2.50;;;2.30;;
6306;SDS011;3186;54.062;9.962;2023-07-31T10:11:44;2.83;;;2.00;;
6306;SDS011;3186;54.062;9.962;2023-07-31T10:14:21;2.93;;;2.73;;
6306;SDS011;3186;54.062;9.962;2023-07-31T10:16:48;3.60;;;3.30;;
6306;SDS011;3186;54.062;9.962;2023-07-31T10:19:16;2.07;;;1.93;;
6306;SDS011;3186;54.062;9.962;2023-07-31T10:21:43;2.50;;;2.30;;
6306;SDS011;3186;54.062;9.962;2023-07-31T10:24:09;2.53;;;2.33;;
6306;SDS011;3186;54.062;9.962;2023-07-31T10:26:35;4.27;;;2.70;;
6306;SDS011;3186;54.062;9.962;2023-07-31T10:29:03;2.60;;;2.40;;
6306;SDS011;3186;54.062;9.962;2023-07-31T10:31:30;2.73;;;2.43;;
6306;SDS011;3186;54.062;9.962;2023-07-31T10:33:57;4.60;;;2.23;;
6306;SDS011;3186;54.062;9.962;2023-07-31T10:36:25;2.70;;;2.50;;
6306;SDS011;3186;54.062;9.962;2023-07-31T10:38:52;2.53;;;2.33;;
6306;SDS011;3186;54.062;9.962;2023-07-31T10:41:18;3.57;;;2.40;;
6306;SDS011;3186;54.062;9.962;2023-07-31T10:43:45;2.60;;;2.40;;
6306;SDS011;3186;54.062;9.962;2023-07-31T10:46:12;2.40;;;1.97;;
6306;SDS011;3186;54.062;9.962;2023-07-31T10:48:39;2.20;;;1.97;;
6306;SDS011;3186;54.062;9.962;2023-07-31T10:51:11;2.07;;;1.97;;
6306;SDS011;3186;54.062;9.962;2023-07-31T10:53:37;1.80;;;1.70;;
6306;SDS011;3186;54.062;9.962;2023-07-31T10:56:08;2.23;;;2.07;;
6306;SDS011;3186;54.062;9.962;2023-07-31T10:58:38;2.73;;;2.03;;
6306;SDS011;3186;54.062;9.962;2023-07-31T11:01:04;1.70;;;1.43;;
6306;SDS011;3186;54.062;9.962;2023-07-31T11:03:43;2.43;;;2.20;;
6306;SDS011;3186;54.062;9.962;2023-07-31T11:06:09;3.87;;;2.17;;
6306;SDS011;3186;54.062;9.962;2023-07-31T11:08:36;2.13;;;1.93;;
6306;SDS011;3186;54.062;9.962;2023-07-31T11:11:17;6.40;;;2.20;;
6306;SDS011;3186;54.062;9.962;2023-07-31T11:16:22;2.63;;;1.90;;
6306;SDS011;3186;54.062;9.962;2023-07-31T11:18:49;2.50;;;2.30;;
6306;SDS011;3186;54.062;9.962;2023-07-31T11:21:25;2.10;;;2.00;;
6306;SDS011;3186;54.062;9.962;2023-07-31T11:23:52;2.43;;;2.00;;
6306;SDS011;3186;54.062;9.962;2023-07-31T11:26:21;2.13;;;2.03;;
6306;SDS011;3186;54.062;9.962;2023-07-31T11:28:49;2.43;;;2.03;;
6306;SDS011;3186;54.062;9.962;2023-07-31T11:31:16;3.40;;;2.10;;
6306;SDS011;3186;54.062;9.962;2023-07-31T11:33:43;2.10;;;1.97;;
6306;SDS011;3186;54.062;9.962;2023-07-31T11:36:19;3.13;;;2.30;;
6306;SDS011;3186;54.062;9.962;2023-07-31T11:38:46;3.27;;;2.17;;
6306;SDS011;3186;54.062;9.962;2023-07-31T11:41:13;2.87;;;2.03;;
6306;SDS011;3186;54.062;9.962;2023-07-31T11:43:41;2.33;;;1.67;;
6306;SDS011;3186;54.062;9.962;2023-07-31T11:46:06;3.57;;;1.90;;
6306;SDS011;3186;54.062;9.962;2023-07-31T11:48:33;2.73;;;1.90;;
6306;SDS011;3186;54.062;9.962;2023-07-31T11:51:05;2.50;;;2.30;;
6306;SDS011;3186;54.062;9.962;2023-07-31T11:53:36;2.07;;;1.87;;
6306;SDS011;3186;54.062;9.962;2023-07-31T11:56:07;2.97;;;1.87;;
6306;SDS011;3186;54.062;9.962;2023-07-31T11:58:36;3.43;;;1.97;;
6306;SDS011;3186;54.062;9.962;2023-07-31T12:01:03;2.43;;;1.97;;
6306;SDS011;3186;54.062;9.962;2023-07-31T12:03:30;3.10;;;1.80;;
6306;SDS011;3186;54.062;9.962;2023-07-31T12:05:58;2.83;;;1.60;;
6306;SDS011;3186;54.062;9.962;2023-07-31T12:08:24;2.23;;;1.87;;
6306;SDS011;3186;54.062;9.962;2023-07-31T12:10:51;1.60;;;1.50;;
6306;SDS011;3186;54.062;9.962;2023-07-31T12:13:21;3.07;;;2.17;;
6306;SDS011;3186;54.062;9.962;2023-07-31T12:15:54;1.90;;;1.43;;
6306;SDS011;3186;54.062;9.962;2023-07-31T12:18:22;2.10;;;1.87;;
6306;SDS011;3186;54.062;9.962;2023-07-31T12:20:53;1.80;;;1.70;;
6306;SDS011;3186;54.062;9.962;2023-07-31T12:23:28;2.70;;;1.90;;
6306;SDS011;3186;54.062;9.962;2023-07-31T12:28:40;3.57;;;1.50;;
6306;SDS011;3186;54.062;9.962;2023-07-31T12:31:11;2.00;;;1.60;;
6306;SDS011;3186;54.062;9.962;2023-07-31T12:33:38;1.43;;;1.33;;
6306;SDS011;3186;54.062;9.962;2023-07-31T12:36:10;2.17;;;1.73;;
6306;SDS011;3186;54.062;9.962;2023-07-31T12:38:41;1.43;;;1.33;;
6306;SDS011;3186;54.062;9.962;2023-07-31T12:41:07;1.93;;;1.60;;
6306;SDS011;3186;54.062;9.962;2023-07-31T12:43:34;2.27;;;1.50;;
6306;SDS011;3186;54.062;9.962;2023-07-31T12:46:00;1.70;;;1.60;;
6306;SDS011;3186;54.062;9.962;2023-07-31T12:48:26;1.63;;;1.53;;
6306;SDS011;3186;54.062;9.962;2023-07-31T12:50:52;1.60;;;1.50;;
6306;SDS011;3186;54.062;9.962;2023-07-31T12:53:18;1.60;;;1.50;;
6306;SDS011;3186;54.062;9.962;2023-07-31T12:55:43;2.03;;;1.50;;
6306;SDS011;3186;54.062;9.962;2023-07-31T12:58:09;1.50;;;1.40;;
6306;SDS011;3186;54.062;9.962;2023-07-31T13:00:35;1.90;;;1.43;;
6306;SDS011;3186;54.062;9.962;2023-07-31T13:03:01;1.57;;;1.30;;
6306;SDS011;3186;54.062;9.962;2023-07-31T13:05:28;1.40;;;1.30;;
6306;SDS011;3186;54.062;9.962;2023-07-31T13:07:54;1.83;;;1.53;;
6306;SDS011;3186;54.062;9.962;2023-07-31T13:10:20;3.40;;;1.50;;
6306;SDS011;3186;54.062;9.962;2023-07-31T13:12:47;1.90;;;1.30;;
6306;SDS011;3186;54.062;9.962;2023-07-31T13:15:13;1.30;;;1.20;;
6306;SDS011;3186;54.062;9.962;2023-07-31T13:17:39;2.40;;;1.33;;
6306;SDS011;3186;54.062;9.962;2023-07-31T13:20:05;1.83;;;1.20;;
6306;SDS011;3186;54.062;9.962;2023-07-31T13:22:32;1.23;;;1.13;;
6306;SDS011;3186;54.062;9.962;2023-07-31T13:24:57;1.30;;;1.20;;
6306;SDS011;3186;54.062;9.962;2023-07-31T13:27:23;1.40;;;1.30;;
6306;SDS011;3186;54.062;9.962;2023-07-31T13:29:50;1.40;;;1.30;;
6306;SDS011;3186;54.062;9.962;2023-07-31T13:32:19;1.40;;;1.30;;
6306;SDS011;3186;54.062;9.962;2023-07-31T13:34:46;1.53;;;1.40;;
6306;SDS011;3186;54.062;9.962;2023-07-31T13:37:12;1.40;;;1.30;;
6306;SDS011;3186;54.062;9.962;2023-07-31T13:39:38;1.27;;;1.17;;
6306;SDS011;3186;54.062;9.962;2023-07-31T13:42:05;3.40;;;1.30;;
6306;SDS011;3186;54.062;9.962;2023-07-31T13:44:36;1.40;;;1.30;;
6306;SDS011;3186;54.062;9.962;2023-07-31T13:47:06;1.73;;;1.40;;
6306;SDS011;3186;54.062;9.962;2023-07-31T13:49:33;1.57;;;1.47;;
6306;SDS011;3186;54.062;9.962;2023-07-31T13:51:59;1.33;;;1.20;;
6306;SDS011;3186;54.062;9.962;2023-07-31T13:54:25;1.70;;;1.40;;
6306;SDS011;3186;54.062;9.962;2023-07-31T13:56:51;1.10;;;1.10;;
6306;SDS011;3186;54.062;9.962;2023-07-31T13:59:17;1.10;;;0.90;;
6306;SDS011;3186;54.062;9.962;2023-07-31T14:01:43;1.80;;;1.40;;
6306;SDS011;3186;54.062;9.962;2023-07-31T14:04:09;1.50;;;1.40;;
6306;SDS011;3186;54.062;9.962;2023-07-31T14:06:35;1.60;;;1.30;;
6306;SDS011;3186;54.062;9.962;2023-07-31T14:09:01;1.20;;;1.10;;
6306;SDS011;3186;54.062;9.962;2023-07-31T14:11:28;1.93;;;1.20;;
6306;SDS011;3186;54.062;9.962;2023-07-31T14:13:55;1.20;;;1.20;;
6306;SDS011;3186;54.062;9.962;2023-07-31T14:16:21;1.57;;;1.20;;
6306;SDS011;3186;54.062;9.962;2023-07-31T14:18:47;1.90;;;1.30;;
6306;SDS011;3186;54.062;9.962;2023-07-31T14:21:13;1.43;;;1.33;;
6306;SDS011;3186;54.062;9.962;2023-07-31T14:23:39;1.77;;;1.43;;
6306;SDS011;3186;54.062;9.962;2023-07-31T14:26:06;1.93;;;1.20;;
6306;SDS011;3186;54.062;9.962;2023-07-31T14:28:32;1.47;;;1.27;;
6306;SDS011;3186;54.062;9.962;2023-07-31T14:30:58;1.50;;;1.40;;
6306;SDS011;3186;54.062;9.962;2023-07-31T14:33:24;1.17;;;1.07;;
6306;SDS011;3186;54.062;9.962;2023-07-31T14:35:50;1.73;;;1.23;;
6306;SDS011;3186;54.062;9.962;2023-07-31T14:38:15;1.70;;;1.60;;
6306;SDS011;3186;54.062;9.962;2023-07-31T14:40:41;1.80;;;1.37;;
6306;SDS011;3186;54.062;9.962;2023-07-31T14:43:07;1.13;;;1.03;;
6306;SDS011;3186;54.062;9.962;2023-07-31T14:45:33;2.13;;;1.43;;
6306;SDS011;3186;54.062;9.962;2023-07-31T14:47:59;2.30;;;1.63;;
6306;SDS011;3186;54.062;9.962;2023-07-31T14:50:25;1.83;;;1.30;;
6306;SDS011;3186;54.062;9.962;2023-07-31T14:55:28;1.57;;;1.40;;
6306;SDS011;3186;54.062;9.962;2023-07-31T14:57:53;1.87;;;1.50;;
6306;SDS011;3186;54.062;9.962;2023-07-31T15:00:19;1.37;;;1.27;;
6306;SDS011;3186;54.062;9.962;2023-07-31T15:02:45;6.30;;;3.60;;
6306;SDS011;3186;54.062;9.962;2023-07-31T15:05:11;1.60;;;1.50;;
6306;SDS011;3186;54.062;9.962;2023-07-31T15:07:37;1.57;;;1.47;;
6306;SDS011;3186;54.062;9.962;2023-07-31T15:10:03;2.27;;;1.50;;
6306;SDS011;3186;54.062;9.962;2023-07-31T15:12:29;4.43;;;2.70;;
6306;SDS011;3186;54.062;9.962;2023-07-31T15:14:55;26.23;;;9.70;;
6306;SDS011;3186;54.062;9.962;2023-07-31T15:17:21;2.57;;;1.67;;
6306;SDS011;3186;54.062;9.962;2023-07-31T15:19:47;3.73;;;1.83;;
6306;SDS011;3186;54.062;9.962;2023-07-31T15:22:13;3.93;;;1.70;;
6306;SDS011;3186;54.062;9.962;2023-07-31T15:24:39;4.77;;;4.37;;
6306;SDS011;3186;54.062;9.962;2023-07-31T15:27:05;6.80;;;5.30;;
6306;SDS011;3186;54.062;9.962;2023-07-31T15:29:31;6.07;;;5.47;;
6306;SDS011;3186;54.062;9.962;2023-07-31T15:31:57;4.17;;;3.80;;